createdAt,value
2018-11-01T00:00:23.811Z,99.99
2018-11-01T00:01:23.796Z,99.99
2018-11-01T00:02:23.793Z,99.99
2018-11-01T00:03:23.758Z,99.99
2018-11-01T00:04:23.740Z,99.99
2018-11-01T00:05:23.728Z,99.99
2018-11-01T00:06:23.714Z,99.99
2018-11-01T00:07:23.757Z,99.99
2018-11-01T00:08:23.667Z,99.99
2018-11-01T00:09:23.657Z,99.99
2018-11-01T00:10:23.650Z,99.99
2018-11-01T00:11:23.618Z,99.99
2018-11-01T00:12:23.607Z,99.99
2018-11-01T00:13:23.596Z,99.99
2018-11-01T00:14:23.585Z,99.99
2018-11-01T00:15:23.564Z,99.99
2018-11-01T00:16:23.536Z,99.99
2018-11-01T00:17:23.575Z,99.99
2018-11-01T00:18:23.517Z,99.99
2018-11-01T00:19:23.541Z,99.99
2018-11-01T00:20:23.482Z,99.99
2018-11-01T00:21:23.458Z,99.99
2018-11-01T00:22:23.441Z,99.99
2018-11-01T00:23:23.468Z,99.99
2018-11-01T00:24:23.413Z,99.99
2018-11-01T00:25:23.400Z,99.99
2018-11-01T00:26:23.385Z,99.99
2018-11-01T00:27:23.362Z,99.99
2018-11-01T00:28:23.409Z,99.99
2018-11-01T00:29:23.330Z,99.99
2018-11-01T00:30:23.316Z,99.99
2018-11-01T00:31:23.298Z,99.99
2018-11-01T00:32:23.276Z,99.99
2018-11-01T00:33:23.267Z,99.99
2018-11-01T00:34:23.289Z,99.99
2018-11-01T00:35:23.246Z,99.99
2018-11-01T00:36:23.231Z,99.99
2018-11-01T00:37:23.206Z,99.99
2018-11-01T00:38:23.195Z,99.99
2018-11-01T00:39:23.185Z,99.99
2018-11-01T00:40:23.162Z,99.99
2018-11-01T00:41:23.143Z,99.99
2018-11-01T00:42:23.133Z,99.99
2018-11-01T00:43:23.121Z,99.99
2018-11-01T00:44:23.095Z,99.99
2018-11-01T00:45:23.104Z,99.99
2018-11-01T00:46:23.055Z,99.99
2018-11-01T00:47:23.043Z,99.99
2018-11-01T00:48:23.032Z,99.99
2018-11-01T00:49:23.019Z,99.99
2018-11-01T00:50:23.028Z,99.99
2018-11-01T00:51:22.983Z,99.99
2018-11-01T00:52:22.952Z,99.99
2018-11-01T00:53:22.935Z,99.99
2018-11-01T00:54:22.920Z,99.99
2018-11-01T00:55:22.972Z,99.99
2018-11-01T00:56:22.897Z,99.99
2018-11-01T00:57:22.879Z,99.99
2018-11-01T00:58:22.856Z,99.99
2018-11-01T00:59:22.843Z,99.99
2018-11-01T01:00:22.831Z,99.99
2018-11-01T01:01:22.839Z,99.99
2018-11-01T01:02:22.794Z,99.99
2018-11-01T01:03:22.775Z,99.99
2018-11-01T01:04:22.768Z,99.99
2018-11-01T01:05:22.826Z,99.99
2018-11-01T01:06:22.734Z,99.99
2018-11-01T01:07:22.722Z,99.99
2018-11-01T01:08:22.694Z,99.99
2018-11-01T01:09:22.686Z,99.99
2018-11-01T01:10:22.678Z,99.99
2018-11-01T01:11:22.691Z,99.99
2018-11-01T01:12:22.643Z,99.99
2018-11-01T01:13:22.622Z,99.99
2018-11-01T01:14:22.606Z,99.99
2018-11-01T01:15:22.640Z,99.99
2018-11-01T01:16:22.563Z,99.99
2018-11-01T01:17:22.542Z,99.99
2018-11-01T01:18:22.544Z,99.99
2018-11-01T01:19:22.509Z,99.99
2018-11-01T01:20:22.499Z,99.99
2018-11-01T01:21:22.674Z,99.99
2018-11-01T01:22:22.466Z,99.99
2018-11-01T01:23:22.462Z,99.99
2018-11-01T01:24:22.434Z,99.99
2018-11-01T01:25:22.607Z,99.99
2018-11-01T01:26:22.614Z,99.99
2018-11-01T01:27:22.385Z,99.99
2018-11-01T01:28:22.534Z,99.99
2018-11-01T01:29:22.347Z,99.99
2018-11-01T01:30:22.342Z,99.99
2018-11-01T01:31:22.335Z,99.99
2018-11-01T01:32:22.489Z,99.99
2018-11-01T01:33:22.511Z,99.99
2018-11-01T01:34:22.334Z,99.99
2018-11-01T01:35:22.266Z,99.99
2018-11-01T01:36:22.238Z,99.99
2018-11-01T01:37:22.243Z,99.99
2018-11-01T01:38:22.201Z,99.99
2018-11-01T01:39:22.198Z,99.99
2018-11-01T01:40:22.173Z,99.99
2018-11-01T01:41:22.152Z,99.99
2018-11-01T01:42:22.146Z,99.99
2018-11-01T01:43:22.170Z,99.99
2018-11-01T01:44:22.119Z,99.99
2018-11-01T01:45:22.094Z,99.99
2018-11-01T01:46:22.090Z,99.99
2018-11-01T01:47:22.083Z,99.99
2018-11-01T01:48:22.124Z,99.99
2018-11-01T01:49:22.041Z,99.99
2018-11-01T01:50:22.035Z,99.99
2018-11-01T01:51:22.011Z,99.99
2018-11-01T01:52:21.976Z,99.99
2018-11-01T01:53:21.971Z,99.99
2018-11-01T01:54:21.963Z,99.99
2018-11-01T01:55:21.930Z,99.99
2018-11-01T01:56:21.912Z,99.99
2018-11-01T01:57:21.897Z,99.99
2018-11-01T01:58:21.883Z,99.99
2018-11-01T01:59:21.921Z,99.99
2018-11-01T02:00:21.847Z,99.99
2018-11-01T02:01:21.843Z,99.99
2018-11-01T02:02:21.823Z,99.99
2018-11-01T02:03:21.817Z,99.99
2018-11-01T02:04:21.789Z,99.99
2018-11-01T02:05:21.805Z,99.99
2018-11-01T02:06:21.748Z,99.99
2018-11-01T02:07:21.772Z,99.99
2018-11-01T02:08:21.735Z,99.99
2018-11-01T02:09:21.702Z,99.99
2018-11-01T02:10:21.716Z,99.99
2018-11-01T02:11:21.734Z,99.99
2018-11-01T02:12:21.665Z,99.99
2018-11-01T02:13:21.634Z,99.99
2018-11-01T02:14:21.619Z,99.99
2018-11-01T02:15:21.600Z,99.99
2018-11-01T02:16:21.610Z,99.99
2018-11-01T02:17:21.577Z,99.99
2018-11-01T02:18:21.558Z,99.99
2018-11-01T02:19:21.548Z,99.99
2018-11-01T02:20:21.560Z,99.99
2018-11-01T02:21:21.522Z,99.99
2018-11-01T02:22:21.500Z,99.99
2018-11-01T02:23:21.468Z,99.99
2018-11-01T02:24:21.462Z,99.99
2018-11-01T02:25:21.478Z,99.99
2018-11-01T02:26:21.429Z,99.99
2018-11-01T02:27:21.409Z,99.99
2018-11-01T02:28:21.395Z,99.99
2018-11-01T02:29:21.385Z,99.99
2018-11-01T02:30:21.374Z,99.99
2018-11-01T02:31:21.361Z,99.99
2018-11-01T02:32:21.321Z,99.99
2018-11-01T02:33:21.345Z,99.99
2018-11-01T02:34:21.288Z,99.99
2018-11-01T02:35:21.271Z,99.99
2018-11-01T02:36:21.263Z,99.99
2018-11-01T02:37:21.241Z,99.99
2018-11-01T02:38:21.312Z,99.99
2018-11-01T02:39:21.276Z,99.99
2018-11-01T02:40:21.185Z,99.99
2018-11-01T02:41:21.181Z,99.99
2018-11-01T02:42:21.153Z,99.99
2018-11-01T02:43:21.149Z,99.99
2018-11-01T02:44:21.134Z,99.99
2018-11-01T02:45:21.163Z,99.99
2018-11-01T02:46:21.092Z,99.99
2018-11-01T02:47:21.085Z,99.99
2018-11-01T02:48:21.057Z,99.99
2018-11-01T02:49:21.048Z,99.99
2018-11-01T02:50:21.039Z,99.99
2018-11-01T02:51:21.024Z,99.99
2018-11-01T02:52:21.003Z,99.99
2018-11-01T02:53:20.984Z,99.99
2018-11-01T02:54:20.963Z,99.99
2018-11-01T02:55:21.017Z,99.99
2018-11-01T02:56:20.933Z,99.99
2018-11-01T02:57:20.916Z,99.99
2018-11-01T02:58:20.905Z,99.99
2018-11-01T02:59:20.879Z,99.99
2018-11-01T03:00:20.866Z,99.99
2018-11-01T03:01:20.857Z,99.99
2018-11-01T03:02:20.838Z,99.99
2018-11-01T03:03:20.810Z,99.99
2018-11-01T03:04:20.873Z,99.99
2018-11-01T03:05:20.773Z,99.99
2018-11-01T03:06:20.776Z,99.99
2018-11-01T03:07:20.753Z,99.99
2018-11-01T03:08:20.730Z,99.99
2018-11-01T03:09:20.712Z,99.99
2018-11-01T03:10:20.766Z,99.99
2018-11-01T03:11:20.717Z,99.99
2018-11-01T03:12:20.670Z,99.99
2018-11-01T03:13:20.646Z,99.99
2018-11-01T03:14:20.632Z,99.99
2018-11-01T03:15:20.614Z,99.99
2018-11-01T03:16:20.608Z,99.99
2018-11-01T03:17:20.735Z,99.99
2018-11-01T03:18:20.554Z,99.99
2018-11-01T03:19:20.551Z,99.99
2018-11-01T03:20:21.429Z,99.99
2018-11-01T03:21:20.552Z,99.99
2018-11-01T03:22:20.516Z,99.99
2018-11-01T03:23:20.477Z,99.99
2018-11-01T03:24:20.456Z,99.99
2018-11-01T03:25:20.455Z,99.99
2018-11-01T03:26:20.523Z,99.99
2018-11-01T03:27:20.459Z,99.99
2018-11-01T03:28:20.394Z,99.99
2018-11-01T03:29:20.376Z,99.99
2018-11-01T03:30:20.369Z,99.99
2018-11-01T03:31:20.357Z,99.99
2018-11-01T03:32:20.358Z,99.99
2018-11-01T03:33:20.312Z,99.99
2018-11-01T03:34:20.339Z,99.99
2018-11-01T03:35:20.287Z,99.99
2018-11-01T03:36:20.260Z,99.99
2018-11-01T03:37:20.292Z,99.99
2018-11-01T03:38:20.375Z,99.99
2018-11-01T03:39:20.224Z,99.99
2018-11-01T03:40:20.205Z,99.99
2018-11-01T03:41:20.187Z,99.99
2018-11-01T03:42:20.192Z,99.99
2018-11-01T03:43:20.153Z,99.99
2018-11-01T03:44:20.192Z,99.99
2018-11-01T03:45:20.121Z,99.99
2018-11-01T03:46:20.112Z,99.99
2018-11-01T03:47:20.089Z,99.99
2018-11-01T03:48:20.065Z,99.99
2018-11-01T03:49:20.049Z,99.99
2018-11-01T03:50:20.102Z,99.99
2018-11-01T03:51:20.020Z,99.99
2018-11-01T03:52:20.019Z,99.99
2018-11-01T03:53:20.010Z,99.99
2018-11-01T03:54:19.987Z,99.99
2018-11-01T03:55:19.949Z,99.99
2018-11-01T03:56:19.946Z,99.99
2018-11-01T03:57:19.912Z,99.99
2018-11-01T03:58:19.898Z,99.99
2018-11-01T03:59:19.889Z,99.99
2018-11-01T04:00:19.862Z,99.99
2018-11-01T04:01:19.864Z,99.99
2018-11-01T04:02:19.858Z,99.99
2018-11-01T04:03:19.817Z,99.99
2018-11-01T04:04:19.797Z,99.99
2018-11-01T04:05:19.779Z,99.99
2018-11-01T04:06:19.819Z,99.99
2018-11-01T04:07:19.746Z,99.99
2018-11-01T04:08:19.729Z,99.99
2018-11-01T04:09:19.715Z,99.99
2018-11-01T04:10:19.695Z,99.99
2018-11-01T04:11:19.931Z,99.99
2018-11-01T04:12:19.736Z,99.99
2018-11-01T04:13:19.679Z,99.99
2018-11-01T04:14:19.632Z,99.99
2018-11-01T04:15:19.719Z,99.99
2018-11-01T04:16:19.598Z,99.99
2018-11-01T04:17:19.592Z,99.99
2018-11-01T04:18:19.571Z,99.99
2018-11-01T04:19:19.576Z,99.99
2018-11-01T04:20:19.572Z,99.99
2018-11-01T04:21:20.814Z,99.99
2018-11-01T04:22:19.508Z,99.99
2018-11-01T04:23:19.582Z,99.99
2018-11-01T04:24:19.460Z,99.99
2018-11-01T04:25:19.465Z,99.99
2018-11-01T04:26:19.430Z,99.99
2018-11-01T04:27:19.423Z,99.99
2018-11-01T04:28:19.406Z,99.99
2018-11-01T04:29:19.390Z,99.99
2018-11-01T04:30:19.364Z,99.99
2018-11-01T04:31:19.364Z,99.99
2018-11-01T04:32:19.341Z,99.99
2018-11-01T04:33:19.342Z,99.99
2018-11-01T04:34:19.322Z,99.99
2018-11-01T04:35:19.337Z,99.99
2018-11-01T04:36:19.288Z,99.99
2018-11-01T04:37:19.311Z,99.99
2018-11-01T04:38:19.233Z,99.99
2018-11-01T04:39:19.213Z,99.99
2018-11-01T04:40:19.200Z,99.99
2018-11-01T04:41:19.185Z,99.99
2018-11-01T04:42:19.157Z,99.99
2018-11-01T04:43:19.211Z,99.99
2018-11-01T04:44:19.141Z,99.99
2018-11-01T04:45:19.112Z,99.99
2018-11-01T04:46:19.115Z,99.99
2018-11-01T04:47:19.126Z,99.99
2018-11-01T04:48:19.062Z,99.99
2018-11-01T04:49:19.051Z,99.99
2018-11-01T04:50:19.041Z,99.99
2018-11-01T04:51:19.243Z,99.99
2018-11-01T04:52:19.042Z,99.99
2018-11-01T04:53:18.984Z,99.99
2018-11-01T04:54:18.972Z,99.99
2018-11-01T04:55:18.951Z,99.99
2018-11-01T04:56:18.924Z,99.99
2018-11-01T04:57:18.918Z,99.99
2018-11-01T04:58:18.904Z,99.99
2018-11-01T04:59:18.884Z,99.99
2018-11-01T05:00:18.870Z,99.99
2018-11-01T05:01:18.850Z,99.99
2018-11-01T05:02:18.842Z,99.99
2018-11-01T05:03:18.822Z,99.99
2018-11-01T05:04:18.876Z,99.99
2018-11-01T05:05:18.772Z,99.99
2018-11-01T05:06:18.759Z,99.99
2018-11-01T05:07:18.742Z,99.99
2018-11-01T05:08:18.722Z,99.99
2018-11-01T05:09:18.711Z,99.99
2018-11-01T05:10:18.688Z,99.99
2018-11-01T05:11:18.712Z,99.99
2018-11-01T05:12:18.652Z,99.99
2018-11-01T05:13:18.672Z,99.99
2018-11-01T05:14:18.626Z,99.99
2018-11-01T05:15:18.713Z,99.99
2018-11-01T05:16:18.583Z,99.99
2018-11-01T05:17:18.567Z,99.99
2018-11-01T05:18:18.581Z,99.99
2018-11-01T05:19:18.566Z,99.99
2018-11-01T05:20:18.591Z,99.99
2018-11-01T05:21:18.527Z,99.99
2018-11-01T05:22:18.482Z,99.99
2018-11-01T05:23:18.475Z,99.99
2018-11-01T05:24:18.474Z,99.99
2018-11-01T05:25:18.446Z,99.99
2018-11-01T05:26:18.450Z,99.99
2018-11-01T05:27:18.405Z,99.99
2018-11-01T05:28:18.392Z,99.99
2018-11-01T05:29:18.397Z,99.99
2018-11-01T05:30:18.352Z,99.99
2018-11-01T05:31:18.375Z,99.99
2018-11-01T05:32:18.318Z,99.99
2018-11-01T05:33:18.300Z,99.99
2018-11-01T05:34:18.313Z,99.99
2018-11-01T05:35:18.261Z,99.99
2018-11-01T05:36:18.286Z,99.99
2018-11-01T05:37:18.240Z,99.99
2018-11-01T05:38:18.217Z,99.99
2018-11-01T05:39:18.209Z,99.99
2018-11-01T05:40:18.182Z,99.99
2018-11-01T05:41:18.201Z,99.99
2018-11-01T05:42:18.152Z,99.99
2018-11-01T05:43:18.121Z,99.99
2018-11-01T05:44:18.097Z,99.99
2018-11-01T05:45:18.090Z,99.99
2018-11-01T05:46:18.115Z,99.99
2018-11-01T05:47:18.055Z,99.99
2018-11-01T05:48:18.043Z,99.99
2018-11-01T05:49:18.072Z,99.99
2018-11-01T05:50:18.011Z,99.99
2018-11-01T05:51:17.999Z,99.99
2018-11-01T05:52:17.967Z,99.99
2018-11-01T05:53:17.955Z,99.99
2018-11-01T05:54:17.930Z,99.99
2018-11-01T05:55:17.920Z,99.99
2018-11-01T05:56:17.905Z,99.99
2018-11-01T05:57:17.882Z,99.99
2018-11-01T05:58:17.867Z,99.99
2018-11-01T05:59:17.890Z,99.99
2018-11-01T06:00:17.848Z,99.99
2018-11-01T06:01:17.862Z,99.99
2018-11-01T06:02:17.800Z,99.99
2018-11-01T06:03:17.873Z,99.99
2018-11-01T06:04:17.764Z,99.99
2018-11-01T06:05:17.752Z,99.99
2018-11-01T06:06:17.726Z,99.99
2018-11-01T06:07:17.705Z,99.99
2018-11-01T06:08:17.692Z,99.99
2018-11-01T06:09:17.703Z,99.99
2018-11-01T06:10:17.663Z,99.99
2018-11-01T06:11:17.643Z,99.99
2018-11-01T06:12:17.643Z,99.99
2018-11-01T06:13:17.640Z,99.99
2018-11-01T06:14:17.593Z,99.99
2018-11-01T06:15:17.581Z,99.99
2018-11-01T06:16:17.565Z,99.99
2018-11-01T06:17:17.549Z,99.99
2018-11-01T06:18:17.531Z,99.99
2018-11-01T06:19:17.515Z,99.99
2018-11-01T06:20:17.494Z,99.99
2018-11-01T06:21:17.469Z,99.99
2018-11-01T06:22:17.480Z,99.99
2018-11-01T06:23:17.483Z,99.99
2018-11-01T06:24:17.431Z,99.99
2018-11-01T06:25:17.398Z,99.99
2018-11-01T06:26:17.389Z,99.99
2018-11-01T06:27:17.362Z,99.99
2018-11-01T06:28:17.382Z,99.99
2018-11-01T06:29:17.359Z,99.99
2018-11-01T06:30:17.375Z,99.99
2018-11-01T06:31:17.304Z,99.99
2018-11-01T06:32:17.281Z,99.99
2018-11-01T06:33:17.305Z,99.99
2018-11-01T06:34:17.281Z,99.99
2018-11-01T06:35:17.231Z,99.99
2018-11-01T06:36:17.213Z,99.99
2018-11-01T06:37:17.199Z,99.99
2018-11-01T06:38:17.207Z,99.99
2018-11-01T06:39:17.159Z,99.99
2018-11-01T06:40:17.136Z,99.99
2018-11-01T06:41:17.161Z,99.99
2018-11-01T06:42:17.106Z,99.99
2018-11-01T06:43:17.117Z,99.99
2018-11-01T06:44:17.177Z,99.99
2018-11-01T06:45:17.066Z,99.99
2018-11-01T06:46:17.035Z,99.99
2018-11-01T06:47:17.020Z,99.99
2018-11-01T06:48:17.005Z,99.99
2018-11-01T06:49:16.982Z,99.99
2018-11-01T06:50:16.969Z,99.99
2018-11-01T06:51:16.948Z,99.99
2018-11-01T06:52:16.941Z,99.99
2018-11-01T06:53:16.928Z,99.99
2018-11-01T06:54:16.942Z,99.99
2018-11-01T06:55:16.879Z,99.99
2018-11-01T06:56:16.873Z,99.99
2018-11-01T06:57:16.845Z,99.99
2018-11-01T06:58:16.885Z,99.99
2018-11-01T06:59:17.030Z,99.99
2018-11-01T07:00:16.800Z,99.99
2018-11-01T07:01:16.843Z,99.99
2018-11-01T07:02:16.757Z,99.99
2018-11-01T07:03:16.738Z,99.99
2018-11-01T07:04:16.729Z,99.99
2018-11-01T07:05:16.706Z,99.99
2018-11-01T07:06:16.683Z,99.99
2018-11-01T07:07:16.688Z,99.99
2018-11-01T07:08:16.667Z,99.99
2018-11-01T07:09:16.652Z,99.99
2018-11-01T07:10:16.631Z,99.99
2018-11-01T07:11:16.629Z,99.99
2018-11-01T07:12:16.601Z,99.99
2018-11-01T07:13:16.571Z,99.99
2018-11-01T07:14:16.550Z,99.99
2018-11-01T07:15:16.526Z,99.99
2018-11-01T07:16:16.520Z,99.99
2018-11-01T07:17:16.666Z,99.99
2018-11-01T07:18:16.537Z,99.99
2018-11-01T07:19:16.477Z,99.99
2018-11-01T07:20:16.453Z,99.99
2018-11-01T07:21:16.432Z,99.99
2018-11-01T07:22:16.405Z,99.99
2018-11-01T07:23:16.394Z,99.99
2018-11-01T07:24:16.411Z,99.99
2018-11-01T07:25:16.430Z,99.99
2018-11-01T07:26:16.516Z,99.99
2018-11-01T07:27:16.324Z,99.99
2018-11-01T07:28:16.317Z,99.99
2018-11-01T07:29:16.304Z,99.99
2018-11-01T07:30:16.267Z,99.99
2018-11-01T07:31:16.263Z,99.99
2018-11-01T07:32:16.250Z,99.99
2018-11-01T07:33:16.219Z,99.99
2018-11-01T07:34:16.212Z,99.99
2018-11-01T07:35:16.236Z,99.99
2018-11-01T07:36:16.169Z,99.99
2018-11-01T07:37:16.153Z,99.99
2018-11-01T07:38:16.210Z,99.99
2018-11-01T07:39:16.111Z,99.99
2018-11-01T07:40:16.092Z,99.99
2018-11-01T07:41:16.076Z,99.99
2018-11-01T07:42:16.072Z,99.99
2018-11-01T07:43:16.044Z,99.99
2018-11-01T07:44:16.058Z,99.99
2018-11-01T07:45:16.011Z,99.99
2018-11-01T07:46:15.993Z,99.99
2018-11-01T07:47:15.976Z,99.99
2018-11-01T07:48:15.996Z,99.99
2018-11-01T07:49:15.954Z,99.99
2018-11-01T07:50:15.937Z,99.99
2018-11-01T07:51:15.920Z,99.99
2018-11-01T07:52:15.896Z,99.99
2018-11-01T07:53:15.881Z,99.99
2018-11-01T07:54:15.868Z,99.99
2018-11-01T07:55:15.865Z,99.99
2018-11-01T07:56:15.817Z,99.99
2018-11-01T07:57:15.801Z,99.99
2018-11-01T07:58:15.811Z,99.99
2018-11-01T07:59:15.784Z,99.99
2018-11-01T08:00:15.799Z,99.99
2018-11-01T08:01:15.747Z,99.99
2018-11-01T08:02:15.727Z,99.99
2018-11-01T08:03:15.713Z,99.99
2018-11-01T08:04:15.694Z,99.99
2018-11-01T08:05:15.724Z,99.99
2018-11-01T08:06:15.666Z,99.99
2018-11-01T08:07:15.652Z,99.99
2018-11-01T08:08:15.629Z,99.99
2018-11-01T08:09:15.599Z,99.99
2018-11-01T08:10:15.591Z,99.99
2018-11-01T08:11:15.622Z,99.99
2018-11-01T08:12:15.553Z,99.99
2018-11-01T08:13:15.548Z,99.99
2018-11-01T08:14:15.529Z,99.99
2018-11-01T08:15:15.514Z,99.99
2018-11-01T08:16:15.493Z,99.99
2018-11-01T08:17:15.478Z,99.99
2018-11-01T08:18:15.461Z,99.99
2018-11-01T08:19:15.433Z,99.99
2018-11-01T08:20:15.769Z,99.99
2018-11-01T08:21:15.640Z,99.99
2018-11-01T08:22:15.393Z,99.99
2018-11-01T08:23:15.392Z,99.99
2018-11-01T08:24:15.400Z,99.99
2018-11-01T08:25:15.351Z,99.99
2018-11-01T08:26:15.355Z,99.99
2018-11-01T08:27:15.311Z,99.99
2018-11-01T08:28:15.285Z,99.99
2018-11-01T08:29:15.268Z,99.99
2018-11-01T08:30:15.250Z,99.99
2018-11-01T08:31:15.272Z,99.99
2018-11-01T08:32:15.221Z,99.99
2018-11-01T08:33:15.199Z,99.99
2018-11-01T08:34:15.196Z,99.99
2018-11-01T08:35:15.170Z,99.99
2018-11-01T08:36:15.218Z,99.99
2018-11-01T08:37:15.147Z,99.99
2018-11-01T08:38:15.117Z,99.99
2018-11-01T08:39:15.124Z,99.99
2018-11-01T08:40:15.092Z,99.99
2018-11-01T08:41:15.068Z,99.99
2018-11-01T08:42:15.091Z,99.99
2018-11-01T08:43:15.078Z,99.99
2018-11-01T08:44:15.019Z,99.99
2018-11-01T08:45:15.006Z,99.99
2018-11-01T08:46:14.995Z,99.99
2018-11-01T08:47:14.984Z,99.99
2018-11-01T08:48:14.982Z,99.99
2018-11-01T08:49:14.983Z,99.99
2018-11-01T08:50:14.937Z,99.99
2018-11-01T08:51:14.922Z,99.99
2018-11-01T08:52:14.903Z,99.99
2018-11-01T08:53:14.928Z,99.99
2018-11-01T08:54:14.864Z,99.99
2018-11-01T08:55:14.843Z,99.99
2018-11-01T08:56:14.828Z,99.99
2018-11-01T08:57:14.826Z,99.99
2018-11-01T08:58:14.790Z,99.99
2018-11-01T08:59:14.793Z,99.99
2018-11-01T09:00:14.779Z,99.99
2018-11-01T09:01:14.762Z,99.99
2018-11-01T09:02:14.741Z,99.99
2018-11-01T09:03:14.744Z,99.99
2018-11-01T09:04:14.822Z,99.99
2018-11-01T09:05:14.694Z,99.99
2018-11-01T09:06:14.675Z,99.99
2018-11-01T09:07:14.650Z,99.99
2018-11-01T09:08:14.645Z,99.99
2018-11-01T09:09:14.622Z,99.99
2018-11-01T09:10:14.645Z,99.99
2018-11-01T09:11:14.596Z,99.99
2018-11-01T09:12:14.571Z,99.99
2018-11-01T09:13:14.621Z,99.99
2018-11-01T09:14:14.599Z,99.99
2018-11-01T09:15:14.537Z,99.99
2018-11-01T09:16:14.505Z,99.74
2018-11-01T09:17:14.531Z,99.99
2018-11-01T09:18:14.477Z,99.99
2018-11-01T09:19:14.508Z,99.99
2018-11-01T09:20:14.518Z,99.99
2018-11-01T09:21:14.430Z,99.99
2018-11-01T09:22:14.412Z,99.99
2018-11-01T09:23:14.399Z,99.74
2018-11-01T09:24:14.389Z,98.69
2018-11-01T09:25:14.381Z,97.74
2018-11-01T09:26:14.354Z,95.84
2018-11-01T09:27:14.470Z,96.94
2018-11-01T09:28:14.326Z,92.74
2018-11-01T09:29:14.314Z,93.08
2018-11-01T09:30:14.293Z,95.41
2018-11-01T09:31:14.277Z,96.22
2018-11-01T09:32:14.271Z,94.56
2018-11-01T09:33:14.310Z,91.65
2018-11-01T09:34:14.228Z,89.61
2018-11-01T09:35:14.222Z,90.27
2018-11-01T09:36:14.234Z,91.03
2018-11-01T09:37:14.184Z,92.46
2018-11-01T09:38:14.177Z,90.84
2018-11-01T09:39:14.157Z,91.60
2018-11-01T09:40:14.143Z,90.27
2018-11-01T09:41:14.131Z,88.08
2018-11-01T09:42:14.118Z,88.27
2018-11-01T09:43:14.125Z,89.41
2018-11-01T09:44:14.089Z,90.08
2018-11-01T09:45:14.086Z,90.36
2018-11-01T09:46:14.157Z,90.27
2018-11-01T09:47:14.425Z,90.27
2018-11-01T09:48:14.104Z,89.13
2018-11-01T09:49:14.000Z,90.17
2018-11-01T09:50:13.989Z,88.56
2018-11-01T09:51:13.986Z,88.75
2018-11-01T09:52:13.970Z,88.37
2018-11-01T09:53:13.940Z,89.03
2018-11-01T09:54:13.965Z,89.22
2018-11-01T09:55:13.924Z,89.22
2018-11-01T09:56:13.917Z,84.46
2018-11-01T09:57:13.879Z,83.32
2018-11-01T09:58:13.878Z,85.60
2018-11-01T09:59:13.880Z,86.75
2018-11-01T10:00:13.842Z,88.08
2018-11-01T10:01:13.949Z,89.03
2018-11-01T10:02:13.804Z,88.08
2018-11-01T10:03:13.801Z,86.75
2018-11-01T10:04:13.803Z,85.41
2018-11-01T10:05:13.764Z,85.22
2018-11-01T10:06:13.840Z,85.41
2018-11-01T10:07:13.766Z,84.46
2018-11-01T10:08:13.716Z,85.70
2018-11-01T10:09:13.740Z,87.13
2018-11-01T10:10:13.707Z,87.13
2018-11-01T10:11:13.681Z,88.27
2018-11-01T10:12:13.675Z,88.18
2018-11-01T10:13:13.643Z,85.22
2018-11-01T10:14:13.666Z,84.75
2018-11-01T10:15:13.757Z,83.51
2018-11-01T10:16:13.685Z,83.22
2018-11-01T10:17:14.034Z,84.46
2018-11-01T10:18:13.987Z,84.08
2018-11-01T10:19:13.604Z,83.70
2018-11-01T10:20:13.543Z,84.36
2018-11-01T10:21:13.582Z,84.84
2018-11-01T10:22:13.534Z,84.84
2018-11-01T10:23:13.646Z,84.17
2018-11-01T10:24:13.490Z,84.56
2018-11-01T10:25:13.543Z,84.65
2018-11-01T10:26:13.463Z,84.65
2018-11-01T10:27:19.512Z,84.46
2018-11-01T10:28:13.428Z,83.98
2018-11-01T10:29:13.440Z,83.80
2018-11-01T10:30:13.403Z,84.08
2018-11-01T10:31:13.375Z,84.36
2018-11-01T10:32:13.357Z,84.17
2018-11-01T10:33:13.343Z,84.50
2018-11-01T10:34:13.395Z,84.46
2018-11-01T10:35:13.329Z,84.88
2018-11-01T10:36:13.298Z,83.93
2018-11-01T10:37:13.291Z,83.84
2018-11-01T10:38:13.267Z,83.07
2018-11-01T10:39:13.263Z,82.89
2018-11-01T10:40:13.277Z,82.21
2018-11-01T10:41:13.224Z,82.12
2018-11-01T10:42:13.216Z,83.26
2018-11-01T10:43:13.205Z,83.84
2018-11-01T10:44:13.217Z,84.69
2018-11-01T10:45:13.226Z,84.88
2018-11-01T10:46:13.162Z,84.50
2018-11-01T10:47:13.143Z,83.74
2018-11-01T10:48:13.132Z,83.55
2018-11-01T10:49:13.106Z,84.41
2018-11-01T10:50:13.164Z,84.60
2018-11-01T10:51:13.080Z,84.60
2018-11-01T10:52:13.070Z,82.31
2018-11-01T10:53:13.052Z,82.89
2018-11-01T10:54:13.120Z,84.60
2018-11-01T10:55:13.030Z,84.69
2018-11-01T10:56:13.013Z,84.60
2018-11-01T10:57:13.022Z,84.41
2018-11-01T10:58:12.994Z,84.50
2018-11-01T10:59:12.976Z,84.41
2018-11-01T11:00:13.033Z,84.88
2018-11-01T11:01:12.978Z,85.36
2018-11-01T11:02:12.954Z,85.84
2018-11-01T11:03:12.908Z,84.88
2018-11-01T11:04:12.886Z,84.50
2018-11-01T11:05:12.875Z,83.07
2018-11-01T11:06:12.860Z,83.07
2018-11-01T11:07:12.887Z,84.12
2018-11-01T11:08:12.846Z,84.03
2018-11-01T11:09:12.855Z,83.65
2018-11-01T11:10:12.812Z,84.03
2018-11-01T11:11:12.794Z,82.89
2018-11-01T11:12:12.774Z,84.22
2018-11-01T11:13:12.764Z,84.50
2018-11-01T11:14:12.836Z,84.88
2018-11-01T11:15:12.729Z,86.32
2018-11-01T11:16:12.713Z,84.50
2018-11-01T11:17:12.699Z,83.84
2018-11-01T11:18:12.684Z,82.98
2018-11-01T11:19:12.707Z,82.89
2018-11-01T11:20:12.795Z,83.36
2018-11-01T11:21:13.248Z,83.55
2018-11-01T11:22:12.631Z,84.50
2018-11-01T11:23:12.615Z,84.69
2018-11-01T11:24:12.597Z,85.41
2018-11-01T11:25:12.589Z,86.26
2018-11-01T11:26:12.566Z,85.60
2018-11-01T11:27:12.628Z,86.26
2018-11-01T11:28:12.553Z,86.93
2018-11-01T11:29:12.543Z,86.55
2018-11-01T11:30:12.636Z,84.92
2018-11-01T11:31:12.514Z,85.78
2018-11-01T11:32:12.496Z,85.21
2018-11-01T11:33:12.484Z,85.21
2018-11-01T11:34:12.459Z,84.55
2018-11-01T11:35:12.524Z,85.69
2018-11-01T11:36:12.432Z,87.31
2018-11-01T11:37:12.421Z,87.69
2018-11-01T11:38:12.443Z,87.50
2018-11-01T11:39:12.493Z,87.21
2018-11-01T11:40:12.368Z,86.26
2018-11-01T11:41:12.370Z,84.64
2018-11-01T11:42:12.369Z,85.12
2018-11-01T11:43:12.332Z,84.83
2018-11-01T11:44:12.342Z,83.74
2018-11-01T11:45:12.312Z,84.03
2018-11-01T11:46:12.294Z,84.69
2018-11-01T11:47:12.283Z,84.69
2018-11-01T11:48:12.328Z,84.60
2018-11-01T11:49:12.246Z,85.46
2018-11-01T11:50:12.239Z,86.65
2018-11-01T11:51:12.274Z,87.60
2018-11-01T11:52:12.198Z,87.31
2018-11-01T11:53:12.194Z,87.69
2018-11-01T11:54:12.240Z,87.40
2018-11-01T11:55:12.170Z,86.22
2018-11-01T11:56:12.148Z,85.78
2018-11-01T11:57:12.239Z,85.84
2018-11-01T11:58:12.116Z,86.74
2018-11-01T11:59:12.103Z,85.08
2018-11-01T12:00:12.089Z,84.79
2018-11-01T12:01:12.083Z,85.36
2018-11-01T12:02:12.075Z,86.26
2018-11-01T12:03:12.054Z,86.12
2018-11-01T12:04:12.058Z,86.03
2018-11-01T12:05:12.130Z,85.46
2018-11-01T12:06:12.115Z,86.36
2018-11-01T12:07:11.987Z,87.07
2018-11-01T12:08:11.971Z,86.32
2018-11-01T12:09:11.963Z,85.46
2018-11-01T12:10:11.950Z,85.17
2018-11-01T12:11:11.969Z,86.32
2018-11-01T12:12:11.911Z,87.98
2018-11-01T12:13:11.899Z,87.50
2018-11-01T12:14:11.929Z,86.45
2018-11-01T12:15:11.917Z,85.50
2018-11-01T12:16:11.904Z,85.21
2018-11-01T12:17:11.846Z,86.45
2018-11-01T12:18:11.842Z,87.79
2018-11-01T12:19:11.831Z,87.69
2018-11-01T12:20:11.799Z,88.17
2018-11-01T12:21:11.787Z,87.40
2018-11-01T12:22:11.837Z,87.21
2018-11-01T12:23:11.768Z,87.31
2018-11-01T12:24:11.754Z,88.17
2018-11-01T12:25:11.737Z,88.89
2018-11-01T12:26:11.735Z,90.03
2018-11-01T12:27:11.701Z,90.03
2018-11-01T12:28:11.701Z,89.36
2018-11-01T12:29:11.691Z,88.89
2018-11-01T12:30:11.658Z,89.07
2018-11-01T12:31:11.642Z,89.84
2018-11-01T12:32:11.634Z,90.03
2018-11-01T12:33:11.647Z,89.79
2018-11-01T12:34:11.664Z,90.03
2018-11-01T12:35:11.673Z,90.70
2018-11-01T12:36:11.748Z,91.60
2018-11-01T12:37:11.571Z,92.32
2018-11-01T12:38:11.549Z,93.65
2018-11-01T12:39:11.531Z,94.03
2018-11-01T12:40:11.525Z,94.41
2018-11-01T12:41:11.494Z,94.70
2018-11-01T12:42:11.494Z,94.37
2018-11-01T12:43:11.549Z,94.93
2018-11-01T12:44:11.454Z,95.03
2018-11-01T12:45:11.445Z,92.94
2018-11-01T12:46:11.445Z,92.27
2018-11-01T12:47:11.422Z,93.60
2018-11-01T12:48:11.401Z,94.41
2018-11-01T12:49:11.438Z,93.65
2018-11-01T12:50:11.481Z,93.17
2018-11-01T12:51:11.363Z,92.79
2018-11-01T12:52:11.342Z,92.89